Trufant, MI (49347)

12:22 PM EDT on August 31, 2015 (GMT -0400)
Rainbow Lake | | Change Station
CLOSE
Current Station
Personal Weather Station
Location: Trufant, MI
Elevation: 909 ft
Nearby Weather Stations

Elev 909 ft 43.32 °N, 85.30 °W | Updated 10 seconds ago

Overcast
Overcast
67.8 °F
Feels Like 67.8 °F
N
0.0
Wind Variable Wind from NNW
Gusts 0.0 mph

Today
High -- | Low -- °F
--% Chance of Precip.
Yesterday
High -- | Low -- °F
Precip. -- in
7:04 AM 8:18 PM
Waning Gibbous, 95% visible
Pressure 30.10 in
Visibility 10.0 miles
Clouds Overcast 900 ft
Dew Point 66 °F
Humidity 95%
Rainfall 0.00 in
Snow Depth Not available.
UV 1.0 out of 12
Pollen 10.40 out of 12
Air Quality Not available.
Flu Activity Not available.
METAR KRQB 311614Z AUTO 24004KT 10SM OVC009 21/19 A3010 RMK AO2 T02050192
Pressure 30.10 in
Visibility 10.0 miles
Clouds Overcast 900 ft
Dew Point 66 °F
Humidity 95%
Rainfall 0.00 in
Snow Depth Not available.
UV 1.0 out of 12
Pollen 10.40 out of 12
Air Quality Not available.
Flu Activity Not available.
METAR KRQB 311614Z AUTO 24004KT 10SM OVC009 21/19 A3010 RMK AO2 T02050192

10-Day Weather Forecast

×

Almanac

Astronomy

Aug. 31, 2015 Rise Set
Actual Time
Civil Twilight
Nautical Twilight
Astronomical Twilight
Moon
Length of Visible Light
Length of Day
Tomorrow will be .
, % of the Moon is Illuminated

Today's Extremes

State Highs State Lows

Community

WunderPhotos

Upload Photos

1,851,302 photos uploaded!

WunderBlogs® & News

Nearby

Air Quality

  Air Quality AQ Index Pollutant
Not available.

Snow Depth

Station Depth Elevation

Earthquake Activity

City Distance Mag. Time & Date
Minimum magnitude displayed is 2.5.

Coastal Water Temperatures

Place Temperature

Stations

Nearby Weather Stations

Station Location Temp. Windchill Dew Point Humidity Wind Precip. Elev Updated Type